Aeroporto :
LOGIN :

Iscrizione | Disclaimer

   EN    FR    IT 

 










Sommario :    VFR   VFR Marginale   IFR   IFR Intensivo   IFR Molto Intensivo
Visibilità : 
Base nubi : 
>= 8 km
>= 3000ft
5 / 8 km
1000 / 3000 ft
1500m / 5 km
500 / 1000 ft
800 / 1500m
200 / 500 ft
< 800m
< 200 ft
Simboli :   Temporali  Nebbia  Neve Forte  Precipitazioni Forti  Vento > 20 kt
SIGMETs :   Varie  Temporali  Ghiacco  Turbolenza  Onda orograficha  Ceneri Vulcaniche







- Altitudine del aeroporto : 1020 ft
- Codice IATA : ILZ


LZZI - Žilina

ULTIMO METAR :
  • 200930Z 02004KT 300V110 9999 BKN053 05/M03 Q1033

METARs OBSOLETI :
  • 200900Z 08003KT 040V170 9999 BKN053 06/M03 Q1032
  • 200830Z 08004KT 040V130 9999 FEW050 05/M02 Q1032
  • 200823Z 08004KT 040V120 9999 FEW050 05/M02 Q1032
  • 200800Z VRB02KT 9999 FEW050 03/M02 Q1032
  • 200743Z 08003KT 9999 FEW050 03/M01 Q1032
  • 200730Z 09004KT 9999 FEW050 01/M02 Q1032
  • 200700Z 07003KT 9999 FEW050 M00/M03 Q1032

TAF TAF LZZI
Valido dal 20 a 09 ore il 20 a 18 ore UTC


200800Z 2009/2018 VRB02KT 9999 SCT050
TEMPO 2009/2014 02006KT BKN042
Nessun NOTAM noto per questo aeroporto.



MetMap, La meteo Aeronautica in un colpo d'occhio ! - Copyright ORBIFLY Dicembre 2007 - Disclaimer

ORBIFLY MET'MAP TEAM :

Programmazione e sviluppo : Alexandra Zaïnal
Concezione e sviluppo : Baudouin d'Aumeries
Co-Programmazione e sviluppo : Marc-Olivier Méhu
Supporto tecnico e logistico : Manuel Goepfert
Aiuto per la traduzione : Arnaldo La Scala

Contatto : metmap@orbifly.com




FONTI E CREDITI :

   NOAA